sensor_id;sensor_type;location;lat;lon;timestamp;pressure;altitude;pressure_sealevel;temperature;humidity
8051;BME280;4068;42.158;24.732;2023-09-30T00:00:00;99888.09;;;19.38;74.05
8051;BME280;4068;42.158;24.732;2023-09-30T00:02:26;99892.81;;;19.36;74.07
8051;BME280;4068;42.158;24.732;2023-09-30T00:04:52;99889.63;;;19.24;74.22
8051;BME280;4068;42.158;24.732;2023-09-30T00:07:18;99872.50;;;19.25;74.22
8051;BME280;4068;42.158;24.732;2023-09-30T00:09:44;99895.69;;;19.34;74.74
8051;BME280;4068;42.158;24.732;2023-09-30T00:12:09;99906.09;;;19.29;75.18
8051;BME280;4068;42.158;24.732;2023-09-30T00:14:35;99887.16;;;19.14;75.87
8051;BME280;4068;42.158;24.732;2023-09-30T00:17:01;99893.19;;;19.08;76.45
8051;BME280;4068;42.158;24.732;2023-09-30T00:19:27;99882.09;;;19.11;76.46
8051;BME280;4068;42.158;24.732;2023-09-30T00:21:52;99895.88;;;19.16;77.31
8051;BME280;4068;42.158;24.732;2023-09-30T00:24:18;99890.69;;;19.23;77.08
8051;BME280;4068;42.158;24.732;2023-09-30T00:26:43;99899.75;;;19.22;77.02
8051;BME280;4068;42.158;24.732;2023-09-30T00:29:09;99897.38;;;19.27;76.91
8051;BME280;4068;42.158;24.732;2023-09-30T00:31:35;99888.34;;;19.20;77.48
8051;BME280;4068;42.158;24.732;2023-09-30T00:34:01;99877.94;;;19.08;77.99
8051;BME280;4068;42.158;24.732;2023-09-30T00:36:26;99887.69;;;19.01;78.49
8051;BME280;4068;42.158;24.732;2023-09-30T00:38:52;99874.75;;;18.96;78.42
8051;BME280;4068;42.158;24.732;2023-09-30T00:41:17;99869.38;;;18.88;79.07
8051;BME280;4068;42.158;24.732;2023-09-30T00:43:46;99883.81;;;19.04;78.72
8051;BME280;4068;42.158;24.732;2023-09-30T00:46:18;99888.69;;;18.92;78.89
8051;BME280;4068;42.158;24.732;2023-09-30T00:48:47;99889.69;;;18.83;79.61
8051;BME280;4068;42.158;24.732;2023-09-30T00:51:13;99894.72;;;18.86;79.53
8051;BME280;4068;42.158;24.732;2023-09-30T00:53:39;99893.38;;;18.82;79.77
8051;BME280;4068;42.158;24.732;2023-09-30T00:56:05;99900.44;;;18.74;80.13
8051;BME280;4068;42.158;24.732;2023-09-30T00:58:31;99878.59;;;18.69;80.28
8051;BME280;4068;42.158;24.732;2023-09-30T01:00:59;99886.16;;;18.82;80.32
8051;BME280;4068;42.158;24.732;2023-09-30T01:03:25;99887.66;;;18.85;79.87
8051;BME280;4068;42.158;24.732;2023-09-30T01:05:50;99888.66;;;18.84;80.10
8051;BME280;4068;42.158;24.732;2023-09-30T01:08:16;99890.88;;;18.88;79.60
8051;BME280;4068;42.158;24.732;2023-09-30T01:10:43;99891.69;;;18.80;80.26
8051;BME280;4068;42.158;24.732;2023-09-30T01:13:09;99892.53;;;18.81;80.20
8051;BME280;4068;42.158;24.732;2023-09-30T01:15:35;99902.25;;;18.74;80.33
8051;BME280;4068;42.158;24.732;2023-09-30T01:18:02;99903.94;;;18.75;80.85
8051;BME280;4068;42.158;24.732;2023-09-30T01:20:28;99878.28;;;18.64;80.74
8051;BME280;4068;42.158;24.732;2023-09-30T01:22:54;99901.94;;;18.77;80.46
8051;BME280;4068;42.158;24.732;2023-09-30T01:25:22;99901.09;;;18.76;80.06
8051;BME280;4068;42.158;24.732;2023-09-30T01:27:47;99903.78;;;18.76;79.74
8051;BME280;4068;42.158;24.732;2023-09-30T01:30:13;99874.25;;;18.60;79.72
8051;BME280;4068;42.158;24.732;2023-09-30T01:32:39;99883.47;;;18.66;79.97
8051;BME280;4068;42.158;24.732;2023-09-30T01:35:05;99899.41;;;18.59;80.19
8051;BME280;4068;42.158;24.732;2023-09-30T01:37:31;99894.03;;;18.51;80.61
8051;BME280;4068;42.158;24.732;2023-09-30T01:39:56;99904.13;;;18.49;80.67
8051;BME280;4068;42.158;24.732;2023-09-30T01:42:22;99901.06;;;18.43;81.08
8051;BME280;4068;42.158;24.732;2023-09-30T01:44:47;99900.22;;;18.35;81.65
8051;BME280;4068;42.158;24.732;2023-09-30T01:47:13;99903.25;;;18.32;81.53
8051;BME280;4068;42.158;24.732;2023-09-30T01:49:38;99867.66;;;18.13;82.02
8051;BME280;4068;42.158;24.732;2023-09-30T01:52:04;99898.34;;;18.27;82.19
8051;BME280;4068;42.158;24.732;2023-09-30T01:54:29;99901.72;;;18.21;82.93
8051;BME280;4068;42.158;24.732;2023-09-30T01:56:55;99893.47;;;18.14;83.17
8051;BME280;4068;42.158;24.732;2023-09-30T01:59:20;99891.63;;;18.06;83.87
8051;BME280;4068;42.158;24.732;2023-09-30T02:01:47;99899.00;;;18.04;83.77
8051;BME280;4068;42.158;24.732;2023-09-30T02:04:12;99896.94;;;17.98;84.44
8051;BME280;4068;42.158;24.732;2023-09-30T02:06:41;99880.78;;;17.82;85.28
8051;BME280;4068;42.158;24.732;2023-09-30T02:09:06;99875.22;;;17.75;85.08
8051;BME280;4068;42.158;24.732;2023-09-30T02:11:35;99885.00;;;17.84;84.74
8051;BME280;4068;42.158;24.732;2023-09-30T02:14:02;99871.88;;;17.73;85.75
8051;BME280;4068;42.158;24.732;2023-09-30T02:16:27;99885.94;;;17.75;85.85
8051;BME280;4068;42.158;24.732;2023-09-30T02:18:53;99884.09;;;17.67;85.90
8051;BME280;4068;42.158;24.732;2023-09-30T02:21:19;99886.41;;;17.62;86.22
8051;BME280;4068;42.158;24.732;2023-09-30T02:23:44;99886.19;;;17.55;87.31
8051;BME280;4068;42.158;24.732;2023-09-30T02:26:16;99884.50;;;17.46;87.31
8051;BME280;4068;42.158;24.732;2023-09-30T02:28:42;99892.00;;;17.42;88.02
8051;BME280;4068;42.158;24.732;2023-09-30T02:31:08;99875.19;;;17.32;89.41
8051;BME280;4068;42.158;24.732;2023-09-30T02:33:34;99892.44;;;17.30;89.03
8051;BME280;4068;42.158;24.732;2023-09-30T02:36:01;99889.03;;;17.19;88.89
8051;BME280;4068;42.158;24.732;2023-09-30T02:38:26;99872.38;;;17.07;90.30
8051;BME280;4068;42.158;24.732;2023-09-30T02:40:54;99882.47;;;17.14;90.70
8051;BME280;4068;42.158;24.732;2023-09-30T02:43:19;99857.22;;;16.98;90.73
8051;BME280;4068;42.158;24.732;2023-09-30T02:45:45;99890.16;;;17.17;91.07
8051;BME280;4068;42.158;24.732;2023-09-30T02:48:11;99889.44;;;17.06;90.88
8051;BME280;4068;42.158;24.732;2023-09-30T02:50:37;99886.69;;;16.98;91.01
8051;BME280;4068;42.158;24.732;2023-09-30T02:53:02;99885.97;;;16.88;90.83
8051;BME280;4068;42.158;24.732;2023-09-30T02:55:29;99890.47;;;16.87;92.32
8051;BME280;4068;42.158;24.732;2023-09-30T02:57:54;99866.13;;;16.81;92.29
8051;BME280;4068;42.158;24.732;2023-09-30T03:00:21;99883.56;;;16.85;92.79
8051;BME280;4068;42.158;24.732;2023-09-30T03:02:51;99880.34;;;16.81;92.48
8051;BME280;4068;42.158;24.732;2023-09-30T03:05:17;99884.19;;;16.79;92.32
8051;BME280;4068;42.158;24.732;2023-09-30T03:07:43;99851.69;;;16.55;92.71
8051;BME280;4068;42.158;24.732;2023-09-30T03:10:09;99881.31;;;16.72;92.65
8051;BME280;4068;42.158;24.732;2023-09-30T03:12:35;99878.22;;;16.67;92.77
8051;BME280;4068;42.158;24.732;2023-09-30T03:15:01;99854.84;;;16.51;93.05
8051;BME280;4068;42.158;24.732;2023-09-30T03:17:29;99882.22;;;16.63;93.38
8051;BME280;4068;42.158;24.732;2023-09-30T03:19:55;99877.63;;;16.55;93.31
8051;BME280;4068;42.158;24.732;2023-09-30T03:22:22;99878.94;;;16.51;93.41
8051;BME280;4068;42.158;24.732;2023-09-30T03:24:48;99877.94;;;16.52;93.69
8051;BME280;4068;42.158;24.732;2023-09-30T03:27:13;99857.91;;;16.38;93.21
8051;BME280;4068;42.158;24.732;2023-09-30T03:29:40;99855.56;;;16.35;93.19
8051;BME280;4068;42.158;24.732;2023-09-30T03:32:06;99884.13;;;16.52;93.29
8051;BME280;4068;42.158;24.732;2023-09-30T03:34:33;99884.28;;;16.51;93.44
8051;BME280;4068;42.158;24.732;2023-09-30T03:37:01;99879.25;;;16.48;94.05
8051;BME280;4068;42.158;24.732;2023-09-30T03:39:26;99884.75;;;16.46;94.42
8051;BME280;4068;42.158;24.732;2023-09-30T03:41:56;99889.31;;;16.36;94.18
8051;BME280;4068;42.158;24.732;2023-09-30T03:44:23;99861.88;;;16.16;93.76
8051;BME280;4068;42.158;24.732;2023-09-30T03:49:15;99873.88;;;16.30;93.49
8051;BME280;4068;42.158;24.732;2023-09-30T03:51:42;99888.50;;;16.35;93.50
8051;BME280;4068;42.158;24.732;2023-09-30T03:54:07;99886.22;;;16.41;92.91
8051;BME280;4068;42.158;24.732;2023-09-30T03:56:34;99878.09;;;16.32;92.70
8051;BME280;4068;42.158;24.732;2023-09-30T03:59:00;99874.03;;;16.28;92.59
8051;BME280;4068;42.158;24.732;2023-09-30T04:01:25;99899.13;;;16.27;93.33
8051;BME280;4068;42.158;24.732;2023-09-30T04:03:52;99874.03;;;16.10;94.11
8051;BME280;4068;42.158;24.732;2023-09-30T04:06:20;99888.56;;;16.08;94.78
8051;BME280;4068;42.158;24.732;2023-09-30T04:08:46;99896.72;;;16.06;95.30
8051;BME280;4068;42.158;24.732;2023-09-30T04:11:12;99895.88;;;16.05;95.24
8051;BME280;4068;42.158;24.732;2023-09-30T04:13:43;99881.44;;;15.98;95.75
8051;BME280;4068;42.158;24.732;2023-09-30T04:16:10;99895.50;;;16.00;96.38
8051;BME280;4068;42.158;24.732;2023-09-30T04:18:35;99889.03;;;15.93;96.38
8051;BME280;4068;42.158;24.732;2023-09-30T04:21:01;99887.69;;;15.89;97.10
8051;BME280;4068;42.158;24.732;2023-09-30T04:23:27;99897.38;;;15.90;96.80
8051;BME280;4068;42.158;24.732;2023-09-30T04:25:52;99906.69;;;15.86;96.92
8051;BME280;4068;42.158;24.732;2023-09-30T04:28:18;99909.50;;;15.84;96.96
8051;BME280;4068;42.158;24.732;2023-09-30T04:30:50;99893.72;;;15.91;97.25
8051;BME280;4068;42.158;24.732;2023-09-30T04:33:16;99906.47;;;15.97;96.33
8051;BME280;4068;42.158;24.732;2023-09-30T04:35:45;99911.94;;;16.05;94.66
8051;BME280;4068;42.158;24.732;2023-09-30T04:38:11;99888.22;;;15.93;94.80
8051;BME280;4068;42.158;24.732;2023-09-30T04:40:39;99919.50;;;16.10;93.78
8051;BME280;4068;42.158;24.732;2023-09-30T04:43:05;99916.31;;;16.07;93.60
8051;BME280;4068;42.158;24.732;2023-09-30T04:45:31;99915.31;;;16.08;94.00
8051;BME280;4068;42.158;24.732;2023-09-30T04:47:56;99919.91;;;16.15;93.61
8051;BME280;4068;42.158;24.732;2023-09-30T04:50:22;99900.19;;;16.16;92.98
8051;BME280;4068;42.158;24.732;2023-09-30T04:52:48;99928.25;;;16.30;92.61
8051;BME280;4068;42.158;24.732;2023-09-30T04:55:14;99930.50;;;16.35;92.74
8051;BME280;4068;42.158;24.732;2023-09-30T04:57:42;99899.31;;;16.16;92.84
8051;BME280;4068;42.158;24.732;2023-09-30T05:00:11;99916.84;;;16.28;92.76
8051;BME280;4068;42.158;24.732;2023-09-30T05:02:37;99892.78;;;16.28;91.30
8051;BME280;4068;42.158;24.732;2023-09-30T05:05:03;99928.59;;;16.63;89.82
8051;BME280;4068;42.158;24.732;2023-09-30T05:07:32;99916.84;;;16.64;89.23
8051;BME280;4068;42.158;24.732;2023-09-30T05:09:58;99931.41;;;16.80;88.57
8051;BME280;4068;42.158;24.732;2023-09-30T05:12:25;99932.78;;;16.84;88.00
8051;BME280;4068;42.158;24.732;2023-09-30T05:14:50;99886.03;;;16.60;88.33
8051;BME280;4068;42.158;24.732;2023-09-30T05:17:16;99936.44;;;16.83;87.47
8051;BME280;4068;42.158;24.732;2023-09-30T05:19:41;99939.44;;;16.98;87.47
8051;BME280;4068;42.158;24.732;2023-09-30T05:22:07;99916.47;;;16.95;86.99
8051;BME280;4068;42.158;24.732;2023-09-30T05:24:32;99887.78;;;16.87;86.98
8051;BME280;4068;42.158;24.732;2023-09-30T05:26:58;99937.56;;;17.16;87.02
8051;BME280;4068;42.158;24.732;2023-09-30T05:29:23;99936.94;;;17.22;86.73
8051;BME280;4068;42.158;24.732;2023-09-30T05:31:49;99935.31;;;17.30;86.58
8051;BME280;4068;42.158;24.732;2023-09-30T05:34:14;99935.47;;;17.28;86.63
8051;BME280;4068;42.158;24.732;2023-09-30T05:36:39;99947.31;;;17.43;85.74
8051;BME280;4068;42.158;24.732;2023-09-30T05:39:05;99926.06;;;17.50;84.41
8051;BME280;4068;42.158;24.732;2023-09-30T05:41:31;99949.78;;;17.71;84.16
8051;BME280;4068;42.158;24.732;2023-09-30T05:43:57;99940.41;;;17.75;83.74
8051;BME280;4068;42.158;24.732;2023-09-30T05:46:24;99947.84;;;17.90;83.12
8051;BME280;4068;42.158;24.732;2023-09-30T05:48:50;99948.03;;;17.88;83.64
8051;BME280;4068;42.158;24.732;2023-09-30T05:51:15;99949.72;;;17.89;83.46
8051;BME280;4068;42.158;24.732;2023-09-30T05:53:41;99953.28;;;17.98;83.75
8051;BME280;4068;42.158;24.732;2023-09-30T05:56:08;99940.75;;;18.07;83.08
8051;BME280;4068;42.158;24.732;2023-09-30T05:58:36;99956.41;;;18.28;82.61
8051;BME280;4068;42.158;24.732;2023-09-30T06:01:07;99953.44;;;18.39;82.36
8051;BME280;4068;42.158;24.732;2023-09-30T06:03:36;99958.81;;;18.48;82.45
8051;BME280;4068;42.158;24.732;2023-09-30T06:06:10;99953.31;;;18.57;82.33
8051;BME280;4068;42.158;24.732;2023-09-30T06:08:36;99961.53;;;18.80;81.05
8051;BME280;4068;42.158;24.732;2023-09-30T06:11:02;99933.72;;;18.90;79.29
8051;BME280;4068;42.158;24.732;2023-09-30T06:13:28;99954.16;;;19.24;78.34
8051;BME280;4068;42.158;24.732;2023-09-30T06:15:57;99963.72;;;19.43;76.96
8051;BME280;4068;42.158;24.732;2023-09-30T06:18:23;99957.31;;;19.60;76.85
8051;BME280;4068;42.158;24.732;2023-09-30T06:20:49;99951.41;;;19.65;76.83
8051;BME280;4068;42.158;24.732;2023-09-30T06:23:16;99942.63;;;19.79;75.92
8051;BME280;4068;42.158;24.732;2023-09-30T06:25:42;99942.44;;;19.89;74.38
8051;BME280;4068;42.158;24.732;2023-09-30T06:28:08;99945.69;;;20.16;73.10
8051;BME280;4068;42.158;24.732;2023-09-30T06:30:34;99957.94;;;20.50;69.79
8051;BME280;4068;42.158;24.732;2023-09-30T06:33:00;99965.06;;;20.74;67.73
8051;BME280;4068;42.158;24.732;2023-09-30T06:35:27;99967.59;;;20.91;66.72
8051;BME280;4068;42.158;24.732;2023-09-30T06:37:52;99966.09;;;21.11;62.38
8051;BME280;4068;42.158;24.732;2023-09-30T06:40:18;99967.88;;;21.19;62.30
8051;BME280;4068;42.158;24.732;2023-09-30T06:42:44;99963.53;;;21.33;61.37
8051;BME280;4068;42.158;24.732;2023-09-30T06:45:10;99964.72;;;21.53;60.64
8051;BME280;4068;42.158;24.732;2023-09-30T06:47:36;99961.84;;;21.70;58.92
8051;BME280;4068;42.158;24.732;2023-09-30T06:50:04;99937.81;;;21.60;59.04
8051;BME280;4068;42.158;24.732;2023-09-30T06:52:40;99959.41;;;21.90;57.33
8051;BME280;4068;42.158;24.732;2023-09-30T06:55:07;99960.31;;;21.97;56.67
8051;BME280;4068;42.158;24.732;2023-09-30T06:57:34;99955.50;;;22.08;56.93
8051;BME280;4068;42.158;24.732;2023-09-30T06:59:59;99956.84;;;22.18;55.33
8051;BME280;4068;42.158;24.732;2023-09-30T07:02:25;99958.78;;;22.24;55.51
8051;BME280;4068;42.158;24.732;2023-09-30T07:04:52;99967.63;;;22.48;55.13
8051;BME280;4068;42.158;24.732;2023-09-30T07:07:18;99956.94;;;22.62;53.48
8051;BME280;4068;42.158;24.732;2023-09-30T07:09:44;99927.75;;;22.50;53.78
8051;BME280;4068;42.158;24.732;2023-09-30T07:12:09;99964.19;;;22.76;53.80
8051;BME280;4068;42.158;24.732;2023-09-30T07:14:35;99969.50;;;22.91;53.46
8051;BME280;4068;42.158;24.732;2023-09-30T07:17:00;99970.19;;;23.00;52.70
8051;BME280;4068;42.158;24.732;2023-09-30T07:19:26;99967.56;;;23.06;52.01
8051;BME280;4068;42.158;24.732;2023-09-30T07:21:51;99962.94;;;23.22;51.94
8051;BME280;4068;42.158;24.732;2023-09-30T07:24:16;99956.72;;;23.28;51.87
8051;BME280;4068;42.158;24.732;2023-09-30T07:26:42;99965.44;;;23.52;51.35
8051;BME280;4068;42.158;24.732;2023-09-30T07:29:09;99943.28;;;23.41;51.52
8051;BME280;4068;42.158;24.732;2023-09-30T07:31:35;99965.25;;;23.53;50.18
8051;BME280;4068;42.158;24.732;2023-09-30T07:34:01;99976.34;;;23.65;50.78
8051;BME280;4068;42.158;24.732;2023-09-30T07:36:27;99973.63;;;23.65;50.53
8051;BME280;4068;42.158;24.732;2023-09-30T07:38:52;99967.91;;;23.82;48.42
8051;BME280;4068;42.158;24.732;2023-09-30T07:41:18;99962.59;;;23.95;48.10
8051;BME280;4068;42.158;24.732;2023-09-30T07:43:43;99965.78;;;24.12;48.04
8051;BME280;4068;42.158;24.732;2023-09-30T07:46:09;99975.59;;;24.13;47.18
8051;BME280;4068;42.158;24.732;2023-09-30T07:48:34;99966.88;;;24.24;47.74
8051;BME280;4068;42.158;24.732;2023-09-30T07:51:00;99963.56;;;24.29;47.88
8051;BME280;4068;42.158;24.732;2023-09-30T07:53:27;99960.88;;;24.42;47.05
8051;BME280;4068;42.158;24.732;2023-09-30T07:55:52;99962.78;;;24.49;46.96
8051;BME280;4068;42.158;24.732;2023-09-30T07:58:19;99960.94;;;24.56;47.25
8051;BME280;4068;42.158;24.732;2023-09-30T08:00:45;99962.00;;;24.61;46.22
8051;BME280;4068;42.158;24.732;2023-09-30T08:03:11;99936.31;;;24.57;45.56
8051;BME280;4068;42.158;24.732;2023-09-30T08:05:37;99960.81;;;24.84;45.88
8051;BME280;4068;42.158;24.732;2023-09-30T08:08:07;99959.75;;;24.98;45.51
8051;BME280;4068;42.158;24.732;2023-09-30T08:10:32;99938.06;;;24.92;45.69
8051;BME280;4068;42.158;24.732;2023-09-30T08:12:58;99957.69;;;25.07;44.63
8051;BME280;4068;42.158;24.732;2023-09-30T08:15:27;99957.88;;;25.12;44.61
8051;BME280;4068;42.158;24.732;2023-09-30T08:17:52;99963.69;;;25.29;45.31
8051;BME280;4068;42.158;24.732;2023-09-30T08:20:18;99942.03;;;25.36;43.22
8051;BME280;4068;42.158;24.732;2023-09-30T08:22:44;99946.59;;;25.49;42.79
8051;BME280;4068;42.158;24.732;2023-09-30T08:25:10;99948.44;;;25.55;42.51
8051;BME280;4068;42.158;24.732;2023-09-30T08:27:37;99946.34;;;25.71;41.99
8051;BME280;4068;42.158;24.732;2023-09-30T08:30:04;99945.50;;;25.77;42.48
8051;BME280;4068;42.158;24.732;2023-09-30T08:32:33;99949.44;;;25.81;42.40
8051;BME280;4068;42.158;24.732;2023-09-30T08:34:59;99950.25;;;26.01;41.33
8051;BME280;4068;42.158;24.732;2023-09-30T08:37:24;99946.03;;;26.06;41.07
8051;BME280;4068;42.158;24.732;2023-09-30T08:39:49;99931.59;;;26.05;41.10
8051;BME280;4068;42.158;24.732;2023-09-30T08:42:16;99956.38;;;26.29;41.12
8051;BME280;4068;42.158;24.732;2023-09-30T08:44:44;99950.03;;;26.42;40.12
8051;BME280;4068;42.158;24.732;2023-09-30T08:47:09;99876.88;;;25.95;40.46
8051;BME280;4068;42.158;24.732;2023-09-30T08:49:41;99949.59;;;26.45;40.32
8051;BME280;4068;42.158;24.732;2023-09-30T08:52:09;99949.69;;;26.63;38.83
8051;BME280;4068;42.158;24.732;2023-09-30T08:54:36;99953.63;;;26.74;37.90
8051;BME280;4068;42.158;24.732;2023-09-30T08:57:02;99944.25;;;26.70;37.92
8051;BME280;4068;42.158;24.732;2023-09-30T08:59:31;99936.72;;;26.65;37.35
8051;BME280;4068;42.158;24.732;2023-09-30T09:01:57;99937.31;;;26.67;37.62
8051;BME280;4068;42.158;24.732;2023-09-30T09:04:23;99949.66;;;26.77;37.88
8051;BME280;4068;42.158;24.732;2023-09-30T09:06:49;99937.97;;;26.69;37.45
8051;BME280;4068;42.158;24.732;2023-09-30T09:09:15;99939.16;;;26.80;38.10
8051;BME280;4068;42.158;24.732;2023-09-30T09:11:43;99914.22;;;26.83;37.45
8051;BME280;4068;42.158;24.732;2023-09-30T09:14:09;99943.19;;;26.96;37.66
8051;BME280;4068;42.158;24.732;2023-09-30T09:16:34;99942.56;;;27.01;37.89
8051;BME280;4068;42.158;24.732;2023-09-30T09:19:12;99933.94;;;27.04;37.68
8051;BME280;4068;42.158;24.732;2023-09-30T09:21:38;99915.72;;;27.04;38.49
8051;BME280;4068;42.158;24.732;2023-09-30T09:24:04;99929.38;;;27.23;38.68
8051;BME280;4068;42.158;24.732;2023-09-30T09:26:31;99931.25;;;27.48;36.58
8051;BME280;4068;42.158;24.732;2023-09-30T09:29:03;99912.94;;;27.36;36.21
8051;BME280;4068;42.158;24.732;2023-09-30T09:31:32;99893.66;;;27.38;36.59
8051;BME280;4068;42.158;24.732;2023-09-30T09:34:00;99917.84;;;27.46;36.83
8051;BME280;4068;42.158;24.732;2023-09-30T09:36:40;99919.22;;;27.55;35.83
8051;BME280;4068;42.158;24.732;2023-09-30T09:39:06;99909.69;;;27.65;34.89
8051;BME280;4068;42.158;24.732;2023-09-30T09:41:32;99914.53;;;27.63;34.06
8051;BME280;4068;42.158;24.732;2023-09-30T09:43:59;99912.88;;;27.80;34.75
8051;BME280;4068;42.158;24.732;2023-09-30T09:46:24;99909.00;;;27.88;34.72
8051;BME280;4068;42.158;24.732;2023-09-30T09:48:52;99914.47;;;27.88;35.01
8051;BME280;4068;42.158;24.732;2023-09-30T09:51:20;99903.03;;;27.98;34.74
8051;BME280;4068;42.158;24.732;2023-09-30T09:53:46;99899.63;;;28.02;34.60
8051;BME280;4068;42.158;24.732;2023-09-30T09:56:15;99876.97;;;28.02;34.08
8051;BME280;4068;42.158;24.732;2023-09-30T09:58:41;99888.44;;;28.22;33.69
8051;BME280;4068;42.158;24.732;2023-09-30T10:01:09;99889.38;;;28.16;33.13
8051;BME280;4068;42.158;24.732;2023-09-30T10:03:36;99881.75;;;28.06;33.33
8051;BME280;4068;42.158;24.732;2023-09-30T10:06:02;99850.28;;;27.92;33.29
8051;BME280;4068;42.158;24.732;2023-09-30T10:08:39;99875.16;;;28.26;32.99
8051;BME280;4068;42.158;24.732;2023-09-30T10:11:06;99866.56;;;28.29;32.91
8051;BME280;4068;42.158;24.732;2023-09-30T10:19:12;99867.47;;;28.65;31.97
8051;BME280;4068;42.158;24.732;2023-09-30T10:21:38;99865.34;;;28.67;30.85
8051;BME280;4068;42.158;24.732;2023-09-30T10:40:47;99848.22;;;28.48;30.38
8051;BME280;4068;42.158;24.732;2023-09-30T10:43:32;99841.06;;;28.35;30.07
8051;BME280;4068;42.158;24.732;2023-09-30T10:46:01;99833.53;;;28.19;30.35
8051;BME280;4068;42.158;24.732;2023-09-30T10:51:20;99809.41;;;28.34;30.04
8051;BME280;4068;42.158;24.732;2023-09-30T10:53:51;99824.41;;;28.67;30.31
8051;BME280;4068;42.158;24.732;2023-09-30T10:56:18;99822.41;;;28.63;30.01
8051;BME280;4068;42.158;24.732;2023-09-30T10:58:52;99824.13;;;28.33;30.26
8051;BME280;4068;42.158;24.732;2023-09-30T11:01:19;99786.16;;;28.20;30.22
8051;BME280;4068;42.158;24.732;2023-09-30T11:03:46;99809.44;;;28.58;30.89
8051;BME280;4068;42.158;24.732;2023-09-30T11:06:16;99821.50;;;28.50;29.91
8051;BME280;4068;42.158;24.732;2023-09-30T11:08:51;99811.22;;;28.40;29.62
8051;BME280;4068;42.158;24.732;2023-09-30T11:11:18;99815.31;;;28.31;29.47
8051;BME280;4068;42.158;24.732;2023-09-30T11:13:43;99809.16;;;28.36;29.50
8051;BME280;4068;42.158;24.732;2023-09-30T11:16:09;99808.50;;;28.40;29.80
8051;BME280;4068;42.158;24.732;2023-09-30T11:18:35;99808.72;;;28.39;29.42
8051;BME280;4068;42.158;24.732;2023-09-30T11:21:11;99777.63;;;28.28;29.43
8051;BME280;4068;42.158;24.732;2023-09-30T11:23:39;99799.13;;;28.60;29.55
8051;BME280;4068;42.158;24.732;2023-09-30T11:26:06;99797.97;;;28.80;29.28
8051;BME280;4068;42.158;24.732;2023-09-30T11:28:43;99792.03;;;28.71;29.73
8051;BME280;4068;42.158;24.732;2023-09-30T11:31:12;99789.06;;;28.84;29.09
8051;BME280;4068;42.158;24.732;2023-09-30T11:33:53;99779.56;;;28.87;29.24
8051;BME280;4068;42.158;24.732;2023-09-30T11:36:22;99788.38;;;28.89;28.65
8051;BME280;4068;42.158;24.732;2023-09-30T11:38:49;99785.88;;;28.99;28.86
8051;BME280;4068;42.158;24.732;2023-09-30T11:41:16;99780.28;;;28.94;28.93
8051;BME280;4068;42.158;24.732;2023-09-30T11:44:19;99773.72;;;29.07;28.81
8051;BME280;4068;42.158;24.732;2023-09-30T11:51:56;99773.88;;;29.53;28.16
8051;BME280;4068;42.158;24.732;2023-09-30T11:54:21;99761.69;;;29.43;28.52
8051;BME280;4068;42.158;24.732;2023-09-30T11:56:48;99754.31;;;29.44;28.62
8051;BME280;4068;42.158;24.732;2023-09-30T11:59:16;99760.66;;;29.61;28.87
8051;BME280;4068;42.158;24.732;2023-09-30T12:01:41;99759.00;;;29.60;28.09
8051;BME280;4068;42.158;24.732;2023-09-30T12:04:08;99755.94;;;29.57;28.04
8051;BME280;4068;42.158;24.732;2023-09-30T12:06:34;99754.13;;;29.63;28.55
8051;BME280;4068;42.158;24.732;2023-09-30T12:09:01;99734.44;;;29.60;28.34
8051;BME280;4068;42.158;24.732;2023-09-30T12:11:28;99727.88;;;29.61;28.55
8051;BME280;4068;42.158;24.732;2023-09-30T12:13:54;99754.38;;;29.61;27.74
8051;BME280;4068;42.158;24.732;2023-09-30T12:16:20;99752.25;;;29.63;27.53
8051;BME280;4068;42.158;24.732;2023-09-30T12:18:46;99736.91;;;29.62;27.55
8051;BME280;4068;42.158;24.732;2023-09-30T12:21:12;99738.78;;;29.61;27.82
8051;BME280;4068;42.158;24.732;2023-09-30T12:23:45;99739.47;;;29.52;27.71
8051;BME280;4068;42.158;24.732;2023-09-30T12:26:11;99731.09;;;29.58;27.88
8051;BME280;4068;42.158;24.732;2023-09-30T12:28:37;99735.75;;;29.58;27.57
8051;BME280;4068;42.158;24.732;2023-09-30T12:31:02;99698.56;;;29.57;27.59
8051;BME280;4068;42.158;24.732;2023-09-30T12:33:30;99705.13;;;29.73;27.21
8051;BME280;4068;42.158;24.732;2023-09-30T12:35:56;99714.72;;;29.87;27.05
8051;BME280;4068;42.158;24.732;2023-09-30T12:38:26;99728.84;;;29.84;26.86
8051;BME280;4068;42.158;24.732;2023-09-30T12:40:54;99726.91;;;29.68;26.77
8051;BME280;4068;42.158;24.732;2023-09-30T12:43:21;99705.44;;;29.59;26.91
8051;BME280;4068;42.158;24.732;2023-09-30T12:45:47;99716.22;;;29.66;26.89
8051;BME280;4068;42.158;24.732;2023-09-30T12:48:13;99709.56;;;29.45;26.71
8051;BME280;4068;42.158;24.732;2023-09-30T12:50:39;99685.59;;;29.35;26.84
8051;BME280;4068;42.158;24.732;2023-09-30T12:53:05;99676.91;;;29.38;26.94
8051;BME280;4068;42.158;24.732;2023-09-30T12:55:30;99701.59;;;29.43;27.07
8051;BME280;4068;42.158;24.732;2023-09-30T12:57:56;99698.47;;;29.52;27.14
8051;BME280;4068;42.158;24.732;2023-09-30T13:00:22;99702.59;;;29.54;27.33
8051;BME280;4068;42.158;24.732;2023-09-30T13:02:47;99700.84;;;29.48;27.48
8051;BME280;4068;42.158;24.732;2023-09-30T13:05:14;99698.66;;;29.62;27.52
8051;BME280;4068;42.158;24.732;2023-09-30T13:07:41;99692.19;;;29.68;27.13
8051;BME280;4068;42.158;24.732;2023-09-30T13:10:08;99684.50;;;29.65;27.26
8051;BME280;4068;42.158;24.732;2023-09-30T13:12:34;99657.16;;;29.48;27.08
8051;BME280;4068;42.158;24.732;2023-09-30T13:15:00;99672.34;;;29.56;27.32
8051;BME280;4068;42.158;24.732;2023-09-30T13:17:25;99660.41;;;29.62;26.98
8051;BME280;4068;42.158;24.732;2023-09-30T13:19:51;99659.91;;;29.65;26.92
8051;BME280;4068;42.158;24.732;2023-09-30T13:22:19;99662.28;;;29.61;26.99
8051;BME280;4068;42.158;24.732;2023-09-30T13:24:45;99675.31;;;29.71;27.49
8051;BME280;4068;42.158;24.732;2023-09-30T13:27:11;99678.22;;;29.65;26.75
8051;BME280;4068;42.158;24.732;2023-09-30T13:29:36;99658.25;;;29.64;26.91
8051;BME280;4068;42.158;24.732;2023-09-30T13:32:02;99666.88;;;29.73;26.94
8051;BME280;4068;42.158;24.732;2023-09-30T13:34:27;99659.91;;;29.65;26.88
8051;BME280;4068;42.158;24.732;2023-09-30T13:36:54;99643.91;;;29.40;27.00
8051;BME280;4068;42.158;24.732;2023-09-30T13:39:20;99664.28;;;29.49;26.69